Time;durP1;ratioP1;P1;durP2;ratioP2;P2;SDS_P1;SDS_P2;PMS_P1;PMS_P2;Temp;Humidity;BMP_temperature;BMP_pressure;BME280_temperature;BME280_humidity;BME280_pressure;Samples;Min_cycle;Max_cycle;Signal;HPM_P1;HPM_P2
2022/06/06 00:01:51;;;;;;;16.60;14.80;;;15.40;99.90;;;;;;5049827;28;20055;-50
2022/06/06 00:04:18;;;;;;;16.30;14.60;;;15.50;99.90;;;;;;5048640;28;20048;-50
2022/06/06 00:06:45;;;;;;;16.55;14.88;;;15.30;99.90;;;;;;5075367;28;20049;-51
2022/06/06 00:09:14;;;;;;;16.60;14.18;;;15.40;99.90;;;;;;5060155;28;20717;-52
2022/06/06 00:11:40;;;;;;;17.33;15.40;;;15.40;99.90;;;;;;5048617;28;20048;-57
2022/06/06 00:14:08;;;;;;;15.25;13.65;;;15.40;99.90;;;;;;5040303;28;20876;-57
2022/06/06 00:16:35;;;;;;;14.52;13.07;;;15.30;99.90;;;;;;5032446;28;20049;-58
2022/06/06 00:19:02;;;;;;;15.52;14.02;;;15.30;99.90;;;;;;5037884;28;20133;-48
2022/06/06 00:21:30;;;;;;;14.10;12.68;;;15.30;99.90;;;;;;5059577;28;20064;-49
2022/06/06 00:23:59;;;;;;;13.95;12.57;;;15.30;99.90;;;;;;5053825;28;20080;-58
2022/06/06 00:26:27;;;;;;;12.98;11.65;;;15.30;99.90;;;;;;5056122;28;20040;-57
2022/06/06 00:28:54;;;;;;;15.02;12.98;;;15.30;99.90;;;;;;5055223;28;20045;-57
2022/06/06 00:36:49;;;;;;;18.17;12.13;;;15.20;99.90;;;;;;5058168;28;20052;-58
2022/06/06 00:39:17;;;;;;;15.27;13.10;;;15.10;99.90;;;;;;5057743;28;20492;-59
2022/06/06 00:41:48;;;;;;;13.45;11.32;;;15.10;99.90;;;;;;5043558;28;20044;-52
2022/06/06 00:44:17;;;;;;;14.63;12.10;;;15.10;99.90;;;;;;5057482;28;20167;-58
2022/06/06 00:46:51;;;;;;;12.80;11.15;;;15.10;99.90;;;;;;5060158;28;20124;-51
2022/06/06 00:49:29;;;;;;;13.65;12.05;;;15.00;99.90;;;;;;5063364;28;20054;-52
2022/06/06 00:51:56;;;;;;;15.73;12.30;;;15.00;99.90;;;;;;5056175;28;20048;-53
2022/06/06 00:54:23;;;;;;;15.00;11.63;;;15.00;99.90;;;;;;5070034;28;20491;-52
2022/06/06 00:56:56;;;;;;;13.10;11.38;;;14.90;99.90;;;;;;5062562;28;20060;-53
2022/06/06 00:59:27;;;;;;;13.50;12.02;;;15.00;99.90;;;;;;5064363;28;20135;-54
2022/06/06 01:01:55;;;;;;;12.68;11.20;;;15.00;99.90;;;;;;5056070;28;20057;-53
2022/06/06 01:04:24;;;;;;;13.63;12.18;;;14.90;99.90;;;;;;5027884;28;20491;-53
2022/06/06 01:06:50;;;;;;;13.65;12.25;;;14.90;99.90;;;;;;5062168;28;20142;-54
2022/06/06 01:09:18;;;;;;;14.05;12.40;;;14.90;99.90;;;;;;5060911;28;20033;-51
2022/06/06 01:11:50;;;;;;;13.02;11.68;;;14.90;99.90;;;;;;5058574;28;20097;-52
2022/06/06 01:14:19;;;;;;;14.15;12.20;;;14.90;99.90;;;;;;5060391;28;20053;-52
2022/06/06 01:17:29;;;;;;;13.93;12.15;;;14.80;99.90;;;;;;5063377;28;20501;-54
2022/06/06 01:20:06;;;;;;;13.20;11.80;;;14.80;99.90;;;;;;5045377;28;20052;-51
2022/06/06 01:22:54;;;;;;;15.43;13.82;;;14.80;99.90;;;;;;5055706;28;20040;-51
2022/06/06 01:25:47;;;;;;;13.90;12.32;;;14.80;99.90;;;;;;5058356;28;20040;-55
2022/06/06 01:28:34;;;;;;;13.95;12.27;;;14.80;99.90;;;;;;5060838;28;20044;-47
2022/06/06 01:31:05;;;;;;;14.70;12.98;;;14.80;99.90;;;;;;5075639;28;20885;-53
2022/06/06 01:33:56;;;;;;;14.50;13.00;;;14.80;99.90;;;;;;5056603;28;20101;-51
2022/06/06 01:36:26;;;;;;;14.05;12.48;;;14.70;99.90;;;;;;5059716;28;20955;-54
2022/06/06 01:38:54;;;;;;;14.38;12.88;;;14.70;99.90;;;;;;5059856;28;20150;-51
2022/06/06 01:42:08;;;;;;;14.48;12.98;;;14.70;99.90;;;;;;5060744;28;20048;-52
2022/06/06 01:44:37;;;;;;;14.23;12.73;;;14.70;99.90;;;;;;5055762;28;20060;-52
2022/06/06 01:47:07;;;;;;;14.82;13.23;;;14.70;99.90;;;;;;5078263;28;20167;-52
2022/06/06 01:49:34;;;;;;;15.43;13.63;;;14.70;99.90;;;;;;5054571;28;20048;-51
2022/06/06 01:52:07;;;;;;;14.65;12.85;;;14.60;99.90;;;;;;5058865;28;20091;-50
2022/06/06 01:54:33;;;;;;;17.80;13.80;;;14.60;99.90;;;;;;5038609;28;20188;-53
2022/06/06 01:57:02;;;;;;;14.25;12.75;;;14.60;99.90;;;;;;5064101;28;20143;-51
2022/06/06 01:59:28;;;;;;;14.88;13.00;;;14.60;99.90;;;;;;5063132;28;20048;-51
2022/06/06 02:01:55;;;;;;;13.63;12.23;;;14.50;99.90;;;;;;5055906;28;20551;-53
2022/06/06 02:04:21;;;;;;;14.63;12.65;;;14.60;99.90;;;;;;5056364;28;20053;-52
2022/06/06 02:06:47;;;;;;;12.50;11.20;;;14.50;99.90;;;;;;5064589;28;20040;-53
2022/06/06 02:09:13;;;;;;;12.18;10.82;;;14.50;99.90;;;;;;5041653;28;20662;-52
2022/06/06 02:11:40;;;;;;;11.43;10.23;;;14.50;99.90;;;;;;5045563;28;20774;-51
2022/06/06 02:14:07;;;;;;;13.00;10.88;;;14.50;99.90;;;;;;5061519;28;20048;-51
2022/06/06 02:16:33;;;;;;;12.00;10.65;;;14.50;99.90;;;;;;5045297;28;20052;-48
2022/06/06 02:19:00;;;;;;;16.27;11.85;;;14.50;99.90;;;;;;5054174;28;20055;-58
2022/06/06 02:21:26;;;;;;;14.48;11.27;;;14.50;99.90;;;;;;5057656;28;20491;-59
2022/06/06 02:23:52;;;;;;;12.80;11.07;;;14.50;99.90;;;;;;5071105;28;20048;-50
2022/06/06 02:26:18;;;;;;;13.05;10.88;;;14.60;99.90;;;;;;5063242;28;20075;-52
2022/06/06 02:28:44;;;;;;;12.23;10.82;;;14.60;99.90;;;;;;5058869;28;20040;-59
2022/06/06 02:31:10;;;;;;;11.10;9.68;;;14.60;99.90;;;;;;5059853;28;20086;-58
2022/06/06 02:33:36;;;;;;;12.57;10.18;;;14.60;99.90;;;;;;5059549;28;20048;-52
2022/06/06 02:36:03;;;;;;;11.63;10.10;;;14.60;99.90;;;;;;5055197;28;20223;-58
2022/06/06 02:38:30;;;;;;;11.20;9.95;;;14.60;99.90;;;;;;5049110;28;20056;-52
2022/06/06 02:41:07;;;;;;;12.05;10.85;;;14.60;99.90;;;;;;5057758;28;20091;-58
2022/06/06 02:43:42;;;;;;;15.95;14.27;;;14.60;99.90;;;;;;5037352;28;20057;-48
2022/06/06 02:46:10;;;;;;;17.17;15.38;;;14.60;99.90;;;;;;5059494;28;20064;-50
2022/06/06 02:48:37;;;;;;;24.08;21.50;;;14.60;99.90;;;;;;5058275;28;20065;-57
2022/06/06 02:51:05;;;;;;;27.00;24.23;;;14.60;99.90;;;;;;5060316;28;20488;-58
2022/06/06 02:53:31;;;;;;;25.08;22.77;;;14.60;99.90;;;;;;5050413;28;20133;-58
2022/06/06 02:55:58;;;;;;;22.73;20.55;;;14.60;99.90;;;;;;5057195;28;20040;-58
2022/06/06 02:58:26;;;;;;;24.08;21.88;;;14.60;99.90;;;;;;5051111;28;20043;-58
2022/06/06 03:01:01;;;;;;;24.50;21.98;;;14.50;99.90;;;;;;5056661;28;20044;-59
2022/06/06 03:03:28;;;;;;;26.20;23.42;;;14.50;99.90;;;;;;5069460;28;20492;-51
2022/06/06 03:05:57;;;;;;;30.23;26.92;;;14.40;99.90;;;;;;5076298;28;20040;-52
2022/06/06 03:08:58;;;;;;;39.53;29.83;;;14.40;99.90;;;;;;5052372;28;20048;-54
2022/06/06 03:11:27;;;;;;;43.83;32.28;;;14.40;99.90;;;;;;5042814;28;20139;-58
2022/06/06 03:14:14;;;;;;;48.60;35.72;;;14.30;99.90;;;;;;5059494;28;20076;-59
2022/06/06 03:23:08;;;;;;;69.53;45.22;;;14.20;99.90;;;;;;5055605;28;20044;-49
2022/06/06 03:26:11;;;;;;;71.20;43.45;;;14.20;99.90;;;;;;5047693;28;20052;-50
2022/06/06 03:28:49;;;;;;;70.07;44.15;;;14.10;99.90;;;;;;5060032;28;20049;-48
2022/06/06 03:31:42;;;;;;;77.32;45.90;;;14.10;99.90;;;;;;5062104;28;20107;-59
2022/06/06 03:34:20;;;;;;;76.80;48.75;;;14.10;99.90;;;;;;5058032;28;20059;-51
2022/06/06 03:37:05;;;;;;;69.32;45.40;;;14.00;99.90;;;;;;5058646;28;20051;-58
2022/06/06 03:39:43;;;;;;;77.22;47.33;;;14.00;99.90;;;;;;5060846;28;20356;-57
2022/06/06 03:42:18;;;;;;;80.53;49.90;;;14.00;99.90;;;;;;5059030;28;20080;-59
2022/06/06 03:45:01;;;;;;;73.88;46.17;;;14.00;99.90;;;;;;5060260;28;20582;-58
2022/06/06 03:47:45;;;;;;;65.53;39.70;;;13.90;99.90;;;;;;5056556;28;20163;-58
2022/06/06 03:50:27;;;;;;;67.65;38.30;;;13.90;99.90;;;;;;5062110;28;20087;-58
2022/06/06 03:53:20;;;;;;;36.50;25.17;;;13.90;99.90;;;;;;5058948;28;20736;-58
2022/06/06 03:56:11;;;;;;;30.88;20.38;;;13.90;99.90;;;;;;5058420;28;20048;-59
2022/06/06 03:58:39;;;;;;;32.78;19.67;;;13.90;99.90;;;;;;5054486;28;20071;-58
2022/06/06 04:01:10;;;;;;;27.35;17.08;;;13.80;99.90;;;;;;5060055;28;20044;-53
2022/06/06 04:03:37;;;;;;;21.73;14.13;;;13.80;99.90;;;;;;5051286;28;20062;-51
2022/06/06 04:06:05;;;;;;;18.27;12.75;;;13.80;99.90;;;;;;5062282;28;20045;-51
2022/06/06 04:08:32;;;;;;;18.80;12.27;;;13.80;99.90;;;;;;5036997;28;20740;-54
2022/06/06 04:11:30;;;;;;;20.25;12.75;;;13.80;99.90;;;;;;5048786;28;20075;-52
2022/06/06 04:13:59;;;;;;;19.67;12.35;;;13.80;99.90;;;;;;5060671;28;20071;-59
2022/06/06 04:16:50;;;;;;;19.83;13.63;;;13.70;99.90;;;;;;5060155;28;20049;-59
2022/06/06 04:19:40;;;;;;;21.35;14.38;;;13.80;99.90;;;;;;5040836;28;20044;-59
2022/06/06 04:22:44;;;;;;;22.33;14.80;;;13.80;99.90;;;;;;5059579;28;20051;-54
2022/06/06 04:25:22;;;;;;;21.08;15.25;;;13.70;99.90;;;;;;5068105;28;20057;-49
2022/06/06 04:27:53;;;;;;;26.67;18.40;;;13.80;99.90;;;;;;5048478;28;20055;-58
2022/06/06 04:30:42;;;;;;;27.73;17.73;;;13.70;99.90;;;;;;5062566;28;20048;-59
2022/06/06 04:33:34;;;;;;;25.90;18.27;;;13.80;99.90;;;;;;5060002;28;20345;-49
2022/06/06 04:36:23;;;;;;;;;;;13.80;99.90;;;;;;5008816;28;20060;-54
2022/06/06 04:38:58;;;;;;;27.55;16.92;;;13.80;99.90;;;;;;5060441;28;20002;-49
2022/06/06 04:41:33;;;;;;;30.65;18.50;;;13.80;99.90;;;;;;5060367;28;20487;-57
2022/06/06 04:44:14;;;;;;;31.05;19.77;;;13.80;99.90;;;;;;5062936;28;20516;-54
2022/06/06 04:47:04;;;;;;;30.48;20.63;;;13.80;99.90;;;;;;5049001;28;20041;-51
2022/06/06 04:49:32;;;;;;;32.28;20.65;;;13.80;99.90;;;;;;5060473;28;20053;-51
2022/06/06 04:52:01;;;;;;;30.08;19.90;;;13.80;99.90;;;;;;5061553;28;20656;-62
2022/06/06 04:54:30;;;;;;;33.08;21.50;;;13.80;99.90;;;;;;5060722;28;20053;-59
2022/06/06 04:56:59;;;;;;;31.05;21.52;;;13.80;99.90;;;;;;5056875;28;20044;-59
2022/06/06 04:59:26;;;;;;;34.70;21.70;;;13.80;99.90;;;;;;5051845;28;20057;-61
2022/06/06 05:01:54;;;;;;;29.95;21.00;;;13.80;99.90;;;;;;5054274;28;20040;-59
2022/06/06 05:04:20;;;;;;;32.17;22.02;;;13.80;99.90;;;;;;5068907;28;20156;-50
2022/06/06 05:07:02;;;;;;;34.97;21.48;;;13.80;99.90;;;;;;5071114;28;20514;-58
2022/06/06 05:09:45;;;;;;;28.85;20.27;;;13.80;99.90;;;;;;5070411;28;20091;-58
2022/06/06 05:12:14;;;;;;;26.60;19.00;;;13.80;99.90;;;;;;5067870;28;20053;-59
2022/06/06 05:15:23;;;;;;;31.17;17.75;;;13.80;99.90;;;;;;5046529;28;20048;-59
2022/06/06 05:18:24;;;;;;;28.08;18.83;;;13.80;99.90;;;;;;5053697;28;20523;-59
2022/06/06 05:21:15;;;;;;;23.83;18.10;;;13.80;99.90;;;;;;5061192;28;20493;-59
2022/06/06 05:24:03;;;;;;;26.38;18.00;;;13.80;99.90;;;;;;5066885;28;20068;-59
2022/06/06 05:27:25;;;;;;;24.33;17.02;;;13.80;99.90;;;;;;5042094;28;20053;-59
2022/06/06 05:30:06;;;;;;;26.60;18.35;;;13.80;99.90;;;;;;5001089;28;20048;-58
2022/06/06 05:32:49;;;;;;;24.58;18.55;;;13.80;99.90;;;;;;5044223;28;20049;-59
2022/06/06 05:35:26;;;;;;;23.58;17.30;;;13.80;99.90;;;;;;5062165;28;20081;-59
2022/06/06 05:38:01;;;;;;;32.75;19.25;;;13.90;99.90;;;;;;5059489;28;20075;-59
2022/06/06 05:40:35;;;;;;;32.13;19.75;;;13.90;99.90;;;;;;5041878;28;20415;-54
2022/06/06 05:43:26;;;;;;;30.23;19.13;;;13.90;99.90;;;;;;5058594;28;20230;-53
2022/06/06 05:46:27;;;;;;;27.35;17.42;;;13.90;99.90;;;;;;5051579;28;20033;-52
2022/06/06 05:49:28;;;;;;;20.88;16.25;;;13.90;99.90;;;;;;5057856;28;20041;-56
2022/06/06 05:52:17;;;;;;;25.87;16.67;;;14.00;99.90;;;;;;5062033;28;20087;-53
2022/06/06 05:54:58;;;;;;;23.95;17.13;;;14.00;99.90;;;;;;5058910;28;20480;-51
2022/06/06 05:57:49;;;;;;;28.60;18.30;;;14.00;99.90;;;;;;5054565;28;20135;-50
2022/06/06 06:00:19;;;;;;;27.95;17.40;;;14.00;99.90;;;;;;5055561;28;20048;-59
2022/06/06 06:03:23;;;;;;;32.47;19.65;;;14.00;99.90;;;;;;5069859;28;20064;-59
2022/06/06 06:05:56;;;;;;;27.95;18.65;;;14.00;99.90;;;;;;5064014;28;20099;-59
2022/06/06 06:08:36;;;;;;;31.38;20.15;;;14.00;99.90;;;;;;5073238;28;20564;-59
2022/06/06 06:11:23;;;;;;;27.90;18.65;;;14.00;99.90;;;;;;5061217;28;20056;-59
2022/06/06 06:13:57;;;;;;;28.77;18.58;;;14.00;99.90;;;;;;5064598;28;20101;-59
2022/06/06 06:16:27;;;;;;;28.52;18.20;;;14.00;99.90;;;;;;5061714;28;20106;-59
2022/06/06 06:19:01;;;;;;;29.30;18.45;;;14.10;99.90;;;;;;5053633;28;20045;-58
2022/06/06 06:21:38;;;;;;;29.52;17.98;;;14.10;99.90;;;;;;5044676;28;20052;-59
2022/06/06 06:24:10;;;;;;;28.85;17.73;;;14.10;99.90;;;;;;5060734;28;20131;-61
2022/06/06 06:26:38;;;;;;;28.10;18.42;;;14.20;99.90;;;;;;5056378;28;20185;-59
2022/06/06 06:29:06;;;;;;;24.60;15.75;;;14.20;99.90;;;;;;5060072;28;20580;-59
2022/06/06 06:31:58;;;;;;;24.90;17.05;;;14.30;99.90;;;;;;5079028;28;20056;-53
2022/06/06 06:34:27;;;;;;;22.90;15.23;;;14.50;99.90;;;;;;5046490;28;20048;-52
2022/06/06 06:37:15;;;;;;;20.60;14.15;;;14.70;99.90;;;;;;5056820;28;20446;-53
2022/06/06 06:40:02;;;;;;;19.02;13.13;;;15.20;99.90;;;;;;5054740;28;20097;-61
2022/06/06 06:42:46;;;;;;;17.45;12.63;;;15.70;99.90;;;;;;5026212;28;20052;-58
2022/06/06 06:45:27;;;;;;;17.23;11.85;;;16.10;99.90;;;;;;5053334;28;20048;-59
2022/06/06 06:48:05;;;;;;;18.73;10.98;;;16.10;99.90;;;;;;5071893;28;20068;-59
2022/06/06 06:50:40;;;;;;;20.27;11.77;;;16.30;99.90;;;;;;5062875;28;20179;-60
2022/06/06 06:53:12;;;;;;;18.88;11.18;;;16.10;99.90;;;;;;5049107;28;20044;-59
2022/06/06 06:55:41;;;;;;;16.83;11.48;;;16.10;99.90;;;;;;5073589;28;20051;-59
2022/06/06 06:58:34;;;;;;;16.83;12.90;;;16.10;99.90;;;;;;5061225;28;20044;-59
2022/06/06 07:01:12;;;;;;;19.02;13.02;;;16.10;99.90;;;;;;5064301;28;20055;-54
2022/06/06 07:10:00;;;;;;;13.50;10.50;;;16.40;99.90;;;;;;5039288;28;20049;-54
2022/06/06 07:12:54;;;;;;;15.90;11.05;;;16.20;99.90;;;;;;5056024;28;20105;-60
2022/06/06 07:15:42;;;;;;;13.50;10.07;;;16.10;99.90;;;;;;5065781;28;20135;-59
2022/06/06 07:18:10;;;;;;;14.48;11.00;;;16.10;99.90;;;;;;5058897;28;20044;-59
2022/06/06 07:20:40;;;;;;;16.70;11.85;;;16.10;99.90;;;;;;5056072;28;20665;-58
2022/06/06 07:23:11;;;;;;;16.83;11.32;;;16.20;99.90;;;;;;5055082;28;20474;-59
2022/06/06 07:25:43;;;;;;;17.30;11.85;;;16.20;99.90;;;;;;5053817;28;20052;-59
2022/06/06 07:28:12;;;;;;;17.52;12.50;;;16.20;99.90;;;;;;5057593;28;20127;-59
2022/06/06 07:30:58;;;;;;;15.98;11.75;;;16.30;99.90;;;;;;5054198;28;20191;-60
2022/06/06 07:33:54;;;;;;;17.17;12.77;;;16.40;99.90;;;;;;5062128;28;20052;-60
2022/06/06 07:36:20;;;;;;;17.00;12.15;;;16.50;99.90;;;;;;5064949;28;20403;-60
2022/06/06 07:39:05;;;;;;;18.38;12.65;;;16.30;99.90;;;;;;5060033;28;20044;-59
2022/06/06 07:42:06;;;;;;;20.48;13.63;;;16.20;99.90;;;;;;5058887;28;20801;-59
2022/06/06 07:44:44;;;;;;;21.17;12.93;;;16.10;99.90;;;;;;5056831;28;20556;-59
2022/06/06 07:47:48;;;;;;;22.15;15.25;;;16.10;99.90;;;;;;5061502;28;20053;-59
2022/06/06 07:50:25;;;;;;;22.60;13.57;;;16.10;99.90;;;;;;5011668;28;20053;-60
2022/06/06 07:53:30;;;;;;;21.45;14.18;;;16.20;99.90;;;;;;5055827;28;20045;-60
2022/06/06 07:56:34;;;;;;;20.45;15.65;;;16.70;99.90;;;;;;5062431;28;20072;-61
2022/06/06 07:59:28;;;;;;;24.92;15.18;;;16.70;99.90;;;;;;5079885;28;20059;-60
2022/06/06 08:02:15;;;;;;;21.63;14.75;;;16.40;99.90;;;;;;5048991;28;20152;-61
2022/06/06 08:05:20;;;;;;;17.23;14.52;;;16.90;99.90;;;;;;5075362;28;20048;-60
2022/06/06 08:07:57;;;;;;;14.30;11.57;;;17.30;99.90;;;;;;5061918;28;20567;-60
2022/06/06 08:10:43;;;;;;;13.35;10.80;;;17.70;99.90;;;;;;5046528;28;20079;-61
2022/06/06 08:13:36;;;;;;;14.48;10.10;;;18.10;99.90;;;;;;5052987;28;20586;-60
2022/06/06 08:16:14;;;;;;;13.20;9.98;;;18.30;99.90;;;;;;5055415;28;20053;-60
2022/06/06 08:18:53;;;;;;;12.65;9.73;;;18.20;99.90;;;;;;5063691;28;20054;-59
2022/06/06 08:21:31;;;;;;;11.70;8.63;;;18.50;99.90;;;;;;5064049;28;20052;-59
2022/06/06 08:24:00;;;;;;;11.07;7.70;;;18.70;99.90;;;;;;5058630;28;20052;-60
2022/06/06 08:26:27;;;;;;;8.35;6.00;;;18.60;99.90;;;;;;5061012;28;20049;-60
2022/06/06 08:28:54;;;;;;;7.68;4.10;;;18.40;99.90;;;;;;5051926;28;20040;-60
2022/06/06 08:31:21;;;;;;;9.27;5.25;;;17.80;99.90;;;;;;5064179;28;20312;-64
2022/06/06 08:33:48;;;;;;;8.90;5.95;;;17.20;99.90;;;;;;5068162;28;20048;-61
2022/06/06 08:36:58;;;;;;;6.70;5.43;;;16.80;99.90;;;;;;5064805;28;20067;-61
2022/06/06 08:39:53;;;;;;;10.30;5.55;;;17.00;99.90;;;;;;5021029;28;20115;-61
2022/06/06 08:42:43;;;;;;;8.57;5.75;;;17.30;99.90;;;;;;5016686;28;20045;-60
2022/06/06 08:45:09;;;;;;;8.50;4.72;;;17.70;99.90;;;;;;5057853;28;20052;-60
2022/06/06 08:48:09;;;;;;;7.13;3.78;;;18.00;99.90;;;;;;5063326;28;20051;-62
2022/06/06 08:50:56;;;;;;;4.75;3.08;;;18.10;99.90;;;;;;5057470;28;20171;-62
2022/06/06 08:53:34;;;;;;;7.93;2.95;;;18.20;99.90;;;;;;5053920;28;20045;-62
2022/06/06 08:56:01;;;;;;;6.63;2.53;;;18.50;99.90;;;;;;5053711;28;20056;-62
2022/06/06 08:58:45;;;;;;;7.13;2.72;;;18.70;99.90;;;;;;5072900;28;20457;-62
2022/06/06 09:01:26;;;;;;;7.53;2.65;;;18.90;99.90;;;;;;5063611;28;20546;-64
2022/06/06 09:04:29;;;;;;;4.47;2.20;;;18.90;99.90;;;;;;5056285;28;20064;-64
2022/06/06 09:07:03;;;;;;;5.53;2.50;;;18.90;99.90;;;;;;5021455;28;20080;-63
2022/06/06 09:10:08;;;;;;;16.48;13.55;;;18.80;99.90;;;;;;5057954;28;20123;-62
2022/06/06 09:12:49;;;;;;;5.60;2.20;;;19.10;99.90;;;;;;5053956;28;20067;-62
2022/06/06 09:15:30;;;;;;;5.10;2.35;;;19.20;99.90;;;;;;5041486;28;20049;-54
2022/06/06 09:18:15;;;;;;;4.07;1.83;;;19.40;99.90;;;;;;5061728;28;20037;-56
2022/06/06 09:20:52;;;;;;;5.25;2.08;;;19.70;99.90;;;;;;5062465;28;20052;-58
2022/06/06 09:23:46;;;;;;;4.40;2.33;;;19.10;99.90;;;;;;5064082;28;20067;-54
2022/06/06 09:26:37;;;;;;;5.50;2.13;;;19.40;99.90;;;;;;5041855;28;20055;-57
2022/06/06 09:29:37;;;;;;;4.35;2.05;;;20.00;99.90;;;;;;5062249;28;20082;-57
2022/06/06 09:32:06;;;;;;;6.20;2.20;;;20.40;99.90;;;;;;5064334;28;20053;-56
2022/06/06 09:35:10;;;;;;;3.55;1.50;;;19.70;99.90;;;;;;5060132;28;20139;-57
2022/06/06 09:37:59;;;;;;;7.10;2.67;;;19.20;99.90;;;;;;5050244;28;20132;-57
2022/06/06 09:41:22;;;;;;;4.93;2.13;;;19.20;99.90;;;;;;5057845;28;20051;-58
2022/06/06 09:43:55;;;;;;;4.60;2.30;;;18.90;99.90;;;;;;5031667;28;20056;-56
2022/06/06 09:46:47;;;;;;;5.32;1.98;;;19.20;99.90;;;;;;5075196;28;20474;-57
2022/06/06 09:49:35;;;;;;;5.53;2.00;;;19.60;99.90;;;;;;5073201;28;20056;-56
2022/06/06 09:52:04;;;;;;;4.07;2.05;;;19.60;99.90;;;;;;5051251;28;20063;-57
2022/06/06 10:01:21;;;;;;;9.45;2.22;;;18.40;99.90;;;;;;5073020;28;20376;-57
2022/06/06 10:04:16;;;;;;;3.05;1.77;;;18.60;99.90;;;;;;5072289;28;20210;-56
2022/06/06 10:06:48;;;;;;;4.00;1.90;;;19.40;99.90;;;;;;5051467;28;20423;-57
2022/06/06 10:09:37;;;;;;;5.85;1.90;;;19.40;99.90;;;;;;5055716;28;20049;-57
2022/06/06 10:12:21;;;;;;;6.97;1.92;;;19.00;99.90;;;;;;5057204;28;20055;-55
2022/06/06 10:15:06;;;;;;;3.50;1.70;;;18.40;99.90;;;;;;5061781;28;20076;-57
2022/06/06 10:17:41;;;;;;;3.08;1.20;;;17.90;99.90;;;;;;5054036;28;20119;-55
2022/06/06 10:20:29;;;;;;;2.35;1.33;;;17.70;99.90;;;;;;5058542;28;20091;-56
2022/06/06 10:23:16;;;;;;;7.40;2.00;;;17.60;99.90;;;;;;5074585;28;20093;-56
2022/06/06 10:26:11;;;;;;;4.15;2.28;;;17.70;99.90;;;;;;5058656;28;22063;-55
2022/06/06 10:28:58;;;;;;;3.33;2.08;;;18.60;99.90;;;;;;5056703;28;20044;-56
2022/06/06 10:31:51;;;;;;;3.67;1.70;;;18.80;99.90;;;;;;5059930;28;20055;-56
2022/06/06 10:35:02;;;;;;;3.60;1.80;;;18.50;99.90;;;;;;5057870;28;20500;-58
2022/06/06 10:37:35;;;;;;;4.25;2.08;;;18.10;99.90;;;;;;4999983;28;20081;-56
2022/06/06 10:40:25;;;;;;;4.95;2.22;;;17.90;99.90;;;;;;5058566;28;20052;-56
2022/06/06 10:43:17;;;;;;;8.35;2.13;;;17.80;99.90;;;;;;5060064;28;20061;-56
2022/06/06 10:45:58;;;;;;;3.65;2.05;;;17.60;99.90;;;;;;5063805;28;20109;-54
2022/06/06 10:48:46;;;;;;;4.43;2.00;;;17.30;99.90;;;;;;5054130;28;20134;-56
2022/06/06 10:51:36;;;;;;;3.67;1.85;;;17.00;99.90;;;;;;5062106;28;20052;-55
2022/06/06 10:54:27;;;;;;;3.33;2.00;;;16.90;99.90;;;;;;5058694;28;20048;-55
2022/06/06 10:57:02;;;;;;;3.40;2.03;;;16.90;99.90;;;;;;5057863;28;20052;-56
2022/06/06 10:59:46;;;;;;;4.35;2.30;;;16.60;99.90;;;;;;5067478;28;20056;-55
2022/06/06 11:02:15;;;;;;;5.88;2.47;;;16.30;99.90;;;;;;5059077;28;20044;-54
2022/06/06 11:04:44;;;;;;;3.92;2.55;;;16.10;99.90;;;;;;5063542;28;20061;-62
2022/06/06 11:07:40;;;;;;;5.28;2.65;;;15.80;99.90;;;;;;5037757;28;20135;-62
2022/06/06 11:10:49;;;;;;;5.25;2.85;;;15.70;99.90;;;;;;5037555;28;20148;-62
2022/06/06 11:13:27;;;;;;;6.47;2.53;;;15.60;99.90;;;;;;5048988;28;20153;-62
2022/06/06 11:16:24;;;;;;;2.25;1.70;;;15.50;99.90;;;;;;5059038;28;20048;-61
2022/06/06 11:19:21;;;;;;;2.83;1.60;;;15.40;99.90;;;;;;5048558;28;20139;-62
2022/06/06 11:22:02;;;;;;;5.28;1.83;;;15.30;99.90;;;;;;5047061;28;20052;-57
2022/06/06 11:24:48;;;;;;;3.20;1.70;;;15.30;99.90;;;;;;5055613;28;20048;-57
2022/06/06 11:27:35;;;;;;;2.85;1.40;;;15.30;99.90;;;;;;5057220;28;20040;-57
2022/06/06 11:30:23;;;;;;;3.10;2.03;;;15.30;99.90;;;;;;5053465;28;20055;-56
2022/06/06 11:32:58;;;;;;;3.00;1.75;;;15.30;99.90;;;;;;5059174;28;20047;-56
2022/06/06 11:35:40;;;;;;;4.55;3.40;;;15.50;99.90;;;;;;5056827;28;20076;-52
2022/06/06 11:38:28;;;;;;;3.83;2.05;;;15.80;99.90;;;;;;5060396;28;20098;-53
2022/06/06 11:41:03;;;;;;;3.83;1.50;;;16.80;99.90;;;;;;5054761;28;20040;-56
2022/06/06 11:43:38;;;;;;;2.33;1.55;;;17.70;99.90;;;;;;5053373;28;20045;-56
2022/06/06 11:46:30;;;;;;;2.70;1.35;;;18.50;99.90;;;;;;5055542;28;20770;-56
2022/06/06 11:49:40;;;;;;;2.65;1.40;;;19.30;99.90;;;;;;5058763;28;20102;-56
2022/06/06 11:52:18;;;;;;;3.40;1.52;;;19.80;99.90;;;;;;5040504;28;20063;-56
2022/06/06 11:54:55;;;;;;;3.95;1.48;;;19.80;99.90;;;;;;5055155;28;20041;-56
2022/06/06 11:57:56;;;;;;;4.65;1.58;;;20.00;99.90;;;;;;5055641;28;20059;-56
2022/06/06 12:00:44;;;;;;;4.35;1.42;;;20.70;99.90;;;;;;5037361;28;20048;-56
2022/06/06 12:03:25;;;;;;;3.95;1.45;;;20.80;99.90;;;;;;5052011;28;20562;-56
2022/06/06 12:06:10;;;;;;;2.88;1.08;;;21.00;99.90;;;;;;5035140;28;20057;-55
2022/06/06 12:09:01;;;;;;;3.90;1.23;;;20.80;99.90;;;;;;5052847;28;20043;-56
2022/06/06 12:11:55;;;;;;;2.65;1.23;;;20.50;99.90;;;;;;5060180;28;20037;-59
2022/06/06 12:14:46;;;;;;;3.20;0.82;;;20.10;99.90;;;;;;5052525;28;20076;-57
2022/06/06 12:17:27;;;;;;;2.53;0.90;;;20.00;99.90;;;;;;5058787;28;20048;-57
2022/06/06 12:20:21;;;;;;;2.10;0.73;;;20.40;99.90;;;;;;5060142;28;20481;-57
2022/06/06 12:23:00;;;;;;;1.85;0.70;;;19.90;99.90;;;;;;5058133;28;20582;-57
2022/06/06 12:26:04;;;;;;;2.90;0.60;;;20.20;99.90;;;;;;5038558;28;20125;-55
2022/06/06 12:28:45;;;;;;;1.45;0.65;;;19.80;99.90;;;;;;5035296;28;20056;-56
2022/06/06 12:31:17;;;;;;;1.85;0.63;;;19.80;99.90;;;;;;5055983;28;20060;-57
2022/06/06 12:33:48;;;;;;;1.60;0.52;;;19.80;99.90;;;;;;5054794;28;20079;-56
2022/06/06 12:36:54;;;;;;;1.23;0.50;;;19.70;99.90;;;;;;5062002;28;20044;-57
2022/06/06 12:39:27;;;;;;;4.32;0.70;;;19.80;99.90;;;;;;5026498;28;20048;-57
2022/06/06 12:42:34;;;;;;;2.33;1.08;;;19.70;99.90;;;;;;5057139;28;20061;-57
2022/06/06 12:45:28;;;;;;;2.42;0.80;;;19.50;99.90;;;;;;5046365;28;20132;-55
2022/06/06 12:48:22;;;;;;;3.40;1.10;;;19.20;99.90;;;;;;5057988;28;20048;-56
2022/06/06 12:51:23;;;;;;;3.83;1.75;;;19.40;99.90;;;;;;5060140;28;20476;-56
2022/06/06 12:54:11;;;;;;;2.80;1.30;;;19.30;99.90;;;;;;5071633;28;20531;-56
2022/06/06 12:56:47;;;;;;;2.40;1.15;;;19.20;99.90;;;;;;5063711;28;20059;-56
2022/06/06 12:59:31;;;;;;;4.28;1.50;;;19.60;99.90;;;;;;5056531;28;20060;-55
2022/06/06 13:02:23;;;;;;;3.13;1.20;;;19.50;99.90;;;;;;5060579;28;20056;-56
2022/06/06 13:05:19;;;;;;;4.00;1.30;;;19.80;99.90;;;;;;5055966;28;20048;-53
2022/06/06 13:08:05;;;;;;;1.52;1.00;;;19.60;99.90;;;;;;5051329;28;20459;-57
2022/06/06 13:11:05;;;;;;;4.75;0.93;;;19.50;99.90;;;;;;5073220;28;20110;-56
2022/06/06 13:13:49;;;;;;;3.95;1.02;;;19.30;99.90;;;;;;5076371;28;20495;-57
2022/06/06 13:16:34;;;;;;;3.17;1.20;;;19.50;99.90;;;;;;5057779;28;20788;-57
2022/06/06 13:19:28;;;;;;;1.13;0.85;;;19.40;99.90;;;;;;5059546;28;20052;-57
2022/06/06 13:21:54;;;;;;;3.15;1.00;;;19.20;99.90;;;;;;5055814;28;20045;-57
2022/06/06 13:24:39;;;;;;;3.30;0.93;;;19.20;99.90;;;;;;5044819;28;20578;-62
2022/06/06 13:27:55;;;;;;;1.80;1.08;;;19.10;99.90;;;;;;5046031;28;20048;-63
2022/06/06 13:30:23;;;;;;;2.55;0.85;;;18.60;99.90;;;;;;4967942;28;20045;-62
2022/06/06 13:33:23;;;;;;;2.25;0.93;;;18.40;99.90;;;;;;5048982;28;20052;-63
2022/06/06 13:36:02;;;;;;;2.08;1.00;;;18.30;99.90;;;;;;5054046;28;20118;-63
2022/06/06 13:38:52;;;;;;;3.17;1.40;;;18.10;99.90;;;;;;5060344;28;20045;-62
2022/06/06 13:41:27;;;;;;;9.55;1.63;;;17.70;99.90;;;;;;5054082;28;20052;-61
2022/06/06 13:44:00;;;;;;;3.47;1.45;;;17.50;99.90;;;;;;5039202;28;20075;-61
2022/06/06 13:46:58;;;;;;;3.45;1.50;;;17.50;99.90;;;;;;5053091;28;20059;-61
2022/06/06 13:50:01;;;;;;;5.85;2.08;;;17.40;99.90;;;;;;5022089;28;20126;-62
2022/06/06 13:53:06;;;;;;;5.03;2.40;;;17.00;99.90;;;;;;5041960;28;20053;-62
2022/06/06 13:55:37;;;;;;;3.83;2.70;;;16.50;99.90;;;;;;5062447;28;20110;-55
2022/06/06 13:58:12;;;;;;;5.10;3.13;;;16.10;99.90;;;;;;5063537;28;20055;-57
2022/06/06 14:00:49;;;;;;;7.63;3.47;;;16.10;99.90;;;;;;5054386;28;20048;-56
2022/06/06 14:03:36;;;;;;;6.38;3.35;;;15.80;99.90;;;;;;5059493;28;20137;-53
2022/06/06 14:06:32;;;;;;;4.57;3.97;;;15.20;99.90;;;;;;5052043;28;20048;-55
2022/06/06 14:08:59;;;;;;;7.13;4.28;;;15.10;99.90;;;;;;5041174;28;20048;-54
2022/06/06 14:11:34;;;;;;;5.90;4.57;;;15.00;99.90;;;;;;5062844;28;20586;-51